createdAt,value
2023-02-13T00:00:12.491Z,4.78
2023-02-13T00:03:15.512Z,4.95
2023-02-13T00:06:18.589Z,4.80
2023-02-13T00:09:21.598Z,4.90
2023-02-13T00:12:24.425Z,4.85
2023-02-13T00:15:27.033Z,4.78
2023-02-13T00:18:30.279Z,4.68
2023-02-13T00:21:34.134Z,4.82
2023-02-13T00:24:37.237Z,4.75
2023-02-13T00:27:40.222Z,5.13
2023-02-13T00:30:43.126Z,5.28
2023-02-13T00:33:45.421Z,4.68
2023-02-13T00:36:48.507Z,4.90
2023-02-13T00:39:52.334Z,4.28
2023-02-13T00:42:56.351Z,4.30
2023-02-13T00:45:59.618Z,4.50
2023-02-13T00:49:02.488Z,4.47
2023-02-13T00:52:05.457Z,4.53
2023-02-13T00:55:07.752Z,4.35
2023-02-13T00:58:11.543Z,4.13
2023-02-13T01:01:13.663Z,4.28
2023-02-13T01:04:15.817Z,4.63
2023-02-13T01:07:18.329Z,4.72
2023-02-13T01:10:21.470Z,4.38
2023-02-13T01:13:23.797Z,4.70
2023-02-13T01:16:27.026Z,4.30
2023-02-13T01:19:31.828Z,4.32
2023-02-13T01:22:34.536Z,4.65
2023-02-13T01:25:37.045Z,4.53
2023-02-13T01:28:39.774Z,4.35
2023-02-13T01:31:43.231Z,4.80
2023-02-13T01:34:46.130Z,4.85
2023-02-13T01:37:49.042Z,4.60
2023-02-13T01:40:51.237Z,4.60
2023-02-13T01:43:53.921Z,5.13
2023-02-13T01:46:56.394Z,4.80
2023-02-13T01:50:00.181Z,4.85
2023-02-13T01:53:03.148Z,4.90
2023-02-13T01:56:05.389Z,5.03
2023-02-13T01:59:07.772Z,5.43
2023-02-13T02:02:10.576Z,4.95
2023-02-13T02:05:13.398Z,4.90
2023-02-13T02:08:17.323Z,5.05
2023-02-13T02:11:26.774Z,4.90
2023-02-13T02:14:30.292Z,5.15
2023-02-13T02:17:33.235Z,5.00
2023-02-13T02:20:36.291Z,4.90
2023-02-13T02:23:39.014Z,5.18
2023-02-13T02:26:42.843Z,4.63
2023-02-13T02:29:45.361Z,4.80
2023-02-13T02:32:47.938Z,5.18
2023-02-13T02:35:50.253Z,4.95
2023-02-13T02:38:53.744Z,5.18
2023-02-13T02:41:56.980Z,5.15
2023-02-13T02:44:59.636Z,5.35
2023-02-13T02:48:03.266Z,5.18
2023-02-13T02:51:05.963Z,5.30
2023-02-13T02:54:08.687Z,5.22
2023-02-13T02:57:15.406Z,5.03
2023-02-13T03:00:20.967Z,5.10
2023-02-13T03:03:23.718Z,5.85
2023-02-13T03:06:26.322Z,4.78
2023-02-13T03:09:28.705Z,5.07
2023-02-13T03:12:31.412Z,5.32
2023-02-13T03:15:34.029Z,5.38
2023-02-13T03:18:36.997Z,4.95
2023-02-13T03:21:40.407Z,5.30
2023-02-13T03:24:42.676Z,5.35
2023-02-13T03:27:45.782Z,5.38
2023-02-13T03:30:49.220Z,5.55
2023-02-13T03:33:52.002Z,5.05
2023-02-13T03:36:54.835Z,4.95
2023-02-13T03:39:57.514Z,4.40
2023-02-13T03:42:59.752Z,4.90
2023-02-13T03:46:04.473Z,4.53
2023-02-13T03:49:08.395Z,4.60
2023-02-13T03:52:11.520Z,4.65
2023-02-13T03:55:15.312Z,4.88
2023-02-13T03:58:17.804Z,4.30
2023-02-13T04:01:21.021Z,4.18
2023-02-13T04:04:24.397Z,4.63
2023-02-13T04:07:27.474Z,4.78
2023-02-13T04:10:30.939Z,4.50
2023-02-13T04:13:34.438Z,4.43
2023-02-13T04:16:38.019Z,4.22
2023-02-13T04:19:41.836Z,4.55
2023-02-13T04:22:44.165Z,4.43
2023-02-13T04:25:47.869Z,4.57
2023-02-13T04:28:50.421Z,4.32
2023-02-13T04:31:53.486Z,5.00
2023-02-13T04:34:56.541Z,4.70
2023-02-13T04:37:59.216Z,4.50
2023-02-13T04:41:02.259Z,4.60
2023-02-13T04:44:05.400Z,4.70
2023-02-13T04:47:08.431Z,4.50
2023-02-13T04:50:11.259Z,4.97
2023-02-13T04:53:14.213Z,4.63
2023-02-13T04:56:19.643Z,5.20
2023-02-13T04:59:23.350Z,5.13
2023-02-13T05:02:26.529Z,4.95
2023-02-13T05:05:29.714Z,5.20
2023-02-13T05:08:32.758Z,4.85
2023-02-13T05:11:35.449Z,5.10
2023-02-13T05:14:38.508Z,5.57
2023-02-13T05:17:41.874Z,4.70
2023-02-13T05:20:45.144Z,4.95
2023-02-13T05:23:48.323Z,4.72
2023-02-13T05:26:51.342Z,5.03
2023-02-13T05:29:54.198Z,5.30
2023-02-13T05:32:56.663Z,5.18
2023-02-13T05:36:00.345Z,5.15
2023-02-13T05:39:04.474Z,4.97
2023-02-13T05:42:07.747Z,4.93
2023-02-13T05:45:11.434Z,5.05
2023-02-13T05:48:14.555Z,5.30
2023-02-13T05:51:17.906Z,5.43
2023-02-13T05:54:20.416Z,5.45
2023-02-13T05:57:23.156Z,5.55
2023-02-13T06:00:25.815Z,5.57
2023-02-13T06:03:28.627Z,5.30
2023-02-13T06:06:31.590Z,5.40
2023-02-13T06:09:34.728Z,5.45
2023-02-13T06:12:37.051Z,5.57
2023-02-13T06:15:39.882Z,5.43
2023-02-13T06:18:42.635Z,5.18
2023-02-13T06:21:45.049Z,5.78
2023-02-13T06:24:47.290Z,5.65
2023-02-13T06:27:50.086Z,4.95
2023-02-13T06:30:53.324Z,5.85
2023-02-13T06:33:56.843Z,5.68
2023-02-13T06:36:59.533Z,5.43
2023-02-13T06:40:02.577Z,5.63
2023-02-13T06:43:06.397Z,5.22
2023-02-13T06:46:09.581Z,5.00
2023-02-13T06:49:12.770Z,5.25
2023-02-13T06:52:16.013Z,4.75
2023-02-13T06:55:18.967Z,4.82
2023-02-13T06:58:21.908Z,4.47
2023-02-13T07:01:25.043Z,4.95
2023-02-13T07:04:27.877Z,4.70
2023-02-13T07:07:31.063Z,4.95
2023-02-13T07:10:34.126Z,4.60
2023-02-13T07:13:36.828Z,4.80
2023-02-13T07:16:39.957Z,5.53
2023-02-13T07:19:42.220Z,5.00
2023-02-13T07:22:44.936Z,4.95
2023-02-13T07:25:47.308Z,4.95
2023-02-13T07:28:56.961Z,5.05
2023-02-13T07:32:08.986Z,5.15
2023-02-13T07:35:11.932Z,5.10
2023-02-13T07:38:14.680Z,4.75
2023-02-13T07:41:17.351Z,5.18
2023-02-13T07:44:20.118Z,5.65
2023-02-13T07:47:23.025Z,5.40
2023-02-13T07:50:25.025Z,5.43
2023-02-13T07:53:28.316Z,5.38
2023-02-13T07:56:32.279Z,5.50
2023-02-13T07:59:34.920Z,5.40
2023-02-13T08:02:38.081Z,5.28
2023-02-13T08:05:41.075Z,5.53
2023-02-13T08:08:44.300Z,5.40
2023-02-13T08:11:47.933Z,5.35
2023-02-13T08:14:50.869Z,5.43
2023-02-13T08:17:53.785Z,5.43
2023-02-13T08:20:56.851Z,5.38
2023-02-13T08:23:59.892Z,5.95
2023-02-13T08:27:02.869Z,5.40
2023-02-13T08:30:05.704Z,5.00
2023-02-13T08:33:08.594Z,4.85
2023-02-13T08:36:11.312Z,5.70
2023-02-13T08:39:14.459Z,5.65
2023-02-13T08:42:18.057Z,5.35
2023-02-13T08:45:20.926Z,5.47
2023-02-13T08:48:24.151Z,5.60
2023-02-13T08:51:27.270Z,5.40
2023-02-13T08:54:30.157Z,6.05
2023-02-13T08:57:33.075Z,5.68
2023-02-13T09:00:36.142Z,5.63
2023-02-13T09:03:39.195Z,5.57
2023-02-13T09:06:41.849Z,5.53
2023-02-13T09:09:45.317Z,5.15
2023-02-13T09:12:48.061Z,5.20
2023-02-13T09:15:51.676Z,4.85
2023-02-13T09:18:55.540Z,5.82
2023-02-13T09:21:59.091Z,5.65
2023-02-13T09:25:01.370Z,5.55
2023-02-13T09:28:04.104Z,5.70
2023-02-13T09:31:06.977Z,5.85
2023-02-13T09:34:10.015Z,5.43
2023-02-13T09:37:12.744Z,5.70
2023-02-13T09:40:15.046Z,5.90
2023-02-13T09:43:17.281Z,5.53
2023-02-13T09:46:19.976Z,5.38
2023-02-13T09:49:24.401Z,5.63
2023-02-13T09:52:27.600Z,5.35
2023-02-13T09:55:29.912Z,5.25
2023-02-13T09:58:32.879Z,5.25
2023-02-13T10:01:35.423Z,5.75
2023-02-13T10:04:37.804Z,5.80
2023-02-13T10:07:40.180Z,5.47
2023-02-13T10:10:43.675Z,5.45
2023-02-13T10:13:46.488Z,5.82
2023-02-13T10:16:49.398Z,5.50
2023-02-13T10:19:52.826Z,5.45
2023-02-13T10:22:56.502Z,5.55
2023-02-13T10:25:59.311Z,5.85
2023-02-13T10:29:02.129Z,5.82
2023-02-13T10:32:05.442Z,5.85
2023-02-13T10:35:08.583Z,5.03
2023-02-13T10:38:12.056Z,5.32
2023-02-13T10:41:14.551Z,5.47
2023-02-13T10:44:17.802Z,4.55
2023-02-13T10:47:20.785Z,5.10
2023-02-13T10:50:23.345Z,5.20
2023-02-13T10:53:26.901Z,5.25
2023-02-13T10:56:29.501Z,5.47
2023-02-13T10:59:32.830Z,5.38
2023-02-13T11:02:36.282Z,5.40
2023-02-13T11:39:34.674Z,5.82
2023-02-13T11:42:37.914Z,5.28
2023-02-13T11:45:41.025Z,5.20
2023-02-13T11:48:44.073Z,5.38
2023-02-13T11:51:46.872Z,5.90
2023-02-13T11:54:49.582Z,5.90
2023-02-13T11:57:52.533Z,5.95
2023-02-13T12:00:54.798Z,6.07
2023-02-13T12:03:57.844Z,6.00
2023-02-13T12:07:01.111Z,5.95
2023-02-13T12:10:03.710Z,5.53
2023-02-13T12:13:07.026Z,5.75
2023-02-13T12:16:10.394Z,6.15
2023-02-13T12:19:13.349Z,5.95
2023-02-13T12:22:16.635Z,5.90
2023-02-13T12:25:20.050Z,5.85
2023-02-13T12:28:23.068Z,5.28
2023-02-13T12:31:25.900Z,5.85
2023-02-13T12:34:28.107Z,5.63
2023-02-13T12:37:30.865Z,5.32
2023-02-13T12:40:33.432Z,4.75
2023-02-13T12:43:35.896Z,5.45
2023-02-13T12:46:39.946Z,5.53
2023-02-13T12:49:42.905Z,5.07
2023-02-13T12:52:46.106Z,5.82
2023-02-13T12:55:49.586Z,5.10
2023-02-13T12:58:52.549Z,5.20
2023-02-13T13:01:55.487Z,5.03
2023-02-13T13:04:58.978Z,5.03
2023-02-13T13:08:01.570Z,4.47
2023-02-13T13:11:04.745Z,4.85
2023-02-13T13:14:08.624Z,4.78
2023-02-13T13:17:12.544Z,4.88
2023-02-13T13:20:15.463Z,4.93
2023-02-13T13:23:18.900Z,4.80
2023-02-13T13:26:21.390Z,4.35
2023-02-13T13:29:23.936Z,4.53
2023-02-13T13:32:26.862Z,4.60
2023-02-13T13:35:29.701Z,4.47
2023-02-13T13:38:32.434Z,4.55
2023-02-13T13:41:36.041Z,4.93
2023-02-13T13:44:38.715Z,4.45
2023-02-13T13:47:42.481Z,4.38
2023-02-13T13:50:45.200Z,3.92
2023-02-13T13:53:47.915Z,4.32
2023-02-13T13:56:50.305Z,4.57
2023-02-13T13:59:53.751Z,4.20
2023-02-13T14:02:57.576Z,4.18
2023-02-13T14:06:00.856Z,3.83
2023-02-13T14:09:03.959Z,4.07
2023-02-13T14:12:07.241Z,3.78
2023-02-13T14:15:10.026Z,3.90
2023-02-13T14:18:12.888Z,4.03
2023-02-13T14:21:15.807Z,4.18
2023-02-13T14:24:18.519Z,3.63
2023-02-13T14:27:21.727Z,3.80
2023-02-13T14:30:24.748Z,3.80
2023-02-13T14:33:27.445Z,3.40
2023-02-13T14:36:30.358Z,3.40
2023-02-13T14:39:32.935Z,3.63
2023-02-13T14:42:35.323Z,3.65
2023-02-13T14:45:37.570Z,3.80
2023-02-13T14:48:40.765Z,3.67
2023-02-13T14:51:44.523Z,3.80
2023-02-13T14:54:47.327Z,3.45
2023-02-13T14:57:49.880Z,3.67
2023-02-13T15:00:52.636Z,3.83
2023-02-13T15:03:56.569Z,3.63
2023-02-13T15:06:59.222Z,3.22
2023-02-13T15:10:02.372Z,3.53
2023-02-13T15:13:05.318Z,3.55
2023-02-13T15:16:08.052Z,3.47
2023-02-13T15:19:11.665Z,3.42
2023-02-13T15:22:14.378Z,3.58
2023-02-13T15:25:17.475Z,3.58
2023-02-13T15:28:20.934Z,3.63
2023-02-13T15:31:24.853Z,3.65
2023-02-13T15:34:27.552Z,4.03
2023-02-13T15:37:30.536Z,3.55
2023-02-13T15:40:32.845Z,4.10
2023-02-13T15:43:35.868Z,3.58
2023-02-13T15:46:38.674Z,3.75
2023-02-13T15:49:41.810Z,4.40
2023-02-13T15:52:44.471Z,3.72
2023-02-13T15:55:48.188Z,3.83
2023-02-13T15:58:50.544Z,4.00
2023-02-13T16:01:53.380Z,4.03
2023-02-13T16:04:56.069Z,4.18
2023-02-13T16:07:58.526Z,4.05
2023-02-13T16:11:01.479Z,3.45
2023-02-13T16:14:04.752Z,3.30
2023-02-13T16:17:07.959Z,3.35
2023-02-13T16:20:11.463Z,3.28
2023-02-13T16:23:14.131Z,3.42
2023-02-13T16:26:16.892Z,3.80
2023-02-13T16:29:20.313Z,3.40
2023-02-13T16:32:22.837Z,3.55
2023-02-13T16:35:25.975Z,3.63
2023-02-13T16:38:29.358Z,3.53
2023-02-13T16:41:32.327Z,3.72
2023-02-13T16:44:35.380Z,3.83
2023-02-13T16:47:38.703Z,3.92
2023-02-13T16:50:41.965Z,3.55
2023-02-13T16:53:44.940Z,3.78
2023-02-13T16:56:47.869Z,3.45
2023-02-13T16:59:50.924Z,3.25
2023-02-13T17:02:54.178Z,3.58
2023-02-13T17:05:57.653Z,3.70
2023-02-13T17:09:00.359Z,3.20
2023-02-13T17:12:03.095Z,3.40
2023-02-13T17:15:05.809Z,3.63
2023-02-13T17:18:08.857Z,3.45
2023-02-13T17:21:11.716Z,3.25
2023-02-13T17:24:14.857Z,3.33
2023-02-13T17:27:17.980Z,3.63
2023-02-13T17:30:20.662Z,3.38
2023-02-13T17:33:22.903Z,3.70
2023-02-13T17:36:25.262Z,3.60
2023-02-13T17:39:28.025Z,3.90
2023-02-13T17:42:31.158Z,3.80
2023-02-13T17:45:34.116Z,4.10
2023-02-13T17:48:37.015Z,3.80
2023-02-13T17:51:39.842Z,3.83
2023-02-13T17:54:42.186Z,4.13
2023-02-13T17:57:44.902Z,4.00
2023-02-13T18:00:47.534Z,4.05
2023-02-13T18:03:50.186Z,3.95
2023-02-13T18:06:53.005Z,4.03
2023-02-13T18:09:56.049Z,4.03
2023-02-13T18:12:58.780Z,3.97
2023-02-13T18:16:02.342Z,4.30
2023-02-13T18:19:05.034Z,4.18
2023-02-13T18:22:07.741Z,3.95
2023-02-13T18:25:10.087Z,4.13
2023-02-13T18:28:12.754Z,4.38
2023-02-13T18:31:16.132Z,4.47
2023-02-13T18:34:19.194Z,4.50
2023-02-13T18:37:21.737Z,4.68
2023-02-13T18:40:24.518Z,4.80
2023-02-13T18:43:27.853Z,5.05
2023-02-13T18:46:30.952Z,4.90
2023-02-13T18:49:34.077Z,4.70
2023-02-13T18:52:37.084Z,5.03
2023-02-13T18:55:39.445Z,4.60
2023-02-13T18:58:43.130Z,4.65
2023-02-13T19:01:46.333Z,4.72
2023-02-13T19:04:49.588Z,5.18
2023-02-13T19:07:51.701Z,4.97
2023-02-13T19:10:54.742Z,5.38
2023-02-13T19:13:59.413Z,5.55
2023-02-13T19:17:02.417Z,5.55
2023-02-13T19:20:05.537Z,5.20
2023-02-13T19:23:08.385Z,5.60
2023-02-13T19:26:11.281Z,5.70
2023-02-13T19:29:14.025Z,5.80
2023-02-13T19:32:17.387Z,6.18
2023-02-13T19:35:20.596Z,5.90
2023-02-13T19:38:23.558Z,6.13
2023-02-13T19:41:26.022Z,6.28
2023-02-13T19:44:29.482Z,6.70
2023-02-13T19:47:32.532Z,6.18
2023-02-13T19:50:35.716Z,6.40
2023-02-13T19:53:38.728Z,6.45
2023-02-13T19:56:41.434Z,6.80
2023-02-13T19:59:44.453Z,6.72
2023-02-13T20:02:46.682Z,6.93
2023-02-13T20:05:49.529Z,6.63
2023-02-13T20:08:52.417Z,7.03
2023-02-13T20:11:55.684Z,7.20
2023-02-13T20:14:59.338Z,7.03
2023-02-13T20:18:02.128Z,7.32
2023-02-13T20:21:04.656Z,7.40
2023-02-13T20:24:06.907Z,7.55
2023-02-13T20:27:10.570Z,7.07
2023-02-13T20:30:14.016Z,7.15
2023-02-13T20:33:17.474Z,7.45
2023-02-13T20:36:19.752Z,7.93
2023-02-13T20:39:22.130Z,7.43
2023-02-13T20:42:25.500Z,7.20
2023-02-13T20:45:28.899Z,8.00
2023-02-13T20:48:31.681Z,7.38
2023-02-13T20:51:34.362Z,7.03
2023-02-13T20:54:37.918Z,6.65
2023-02-13T20:57:41.543Z,7.10
2023-02-13T21:00:45.862Z,6.50
2023-02-13T21:03:49.396Z,6.90
2023-02-13T21:06:52.738Z,7.13
2023-02-13T21:09:56.116Z,6.65
2023-02-13T21:12:59.201Z,6.50
2023-02-13T21:16:04.678Z,6.15
2023-02-13T21:19:07.597Z,6.50
2023-02-13T21:22:10.980Z,6.78
2023-02-13T21:25:13.757Z,6.43
2023-02-13T21:28:15.955Z,6.80
2023-02-13T21:31:18.959Z,7.13
2023-02-13T21:34:22.506Z,7.22
2023-02-13T21:37:26.157Z,7.43
2023-02-13T21:40:28.729Z,7.45
2023-02-13T21:43:31.609Z,7.85
2023-02-13T21:46:34.602Z,7.57
2023-02-13T21:49:37.093Z,7.68
2023-02-13T21:52:39.640Z,7.50
2023-02-13T21:55:41.799Z,7.75
2023-02-13T21:58:44.576Z,7.18
2023-02-13T22:01:47.751Z,7.90
2023-02-13T22:04:51.668Z,9.10
2023-02-13T22:07:55.164Z,8.40
2023-02-13T22:10:58.320Z,8.38
2023-02-13T22:14:02.089Z,8.82
2023-02-13T22:17:04.618Z,8.93
2023-02-13T22:20:07.859Z,9.32
2023-02-13T22:23:10.273Z,9.02
2023-02-13T22:26:13.017Z,7.95
2023-02-13T22:29:15.372Z,7.75
2023-02-13T22:32:18.454Z,7.63
2023-02-13T22:35:21.978Z,7.30
2023-02-13T22:38:24.517Z,7.47
2023-02-13T22:41:27.867Z,7.35
2023-02-13T22:44:30.952Z,6.90
2023-02-13T22:47:33.396Z,7.18
2023-02-13T22:50:36.824Z,6.85
2023-02-13T22:53:39.897Z,6.63
2023-02-13T22:56:42.978Z,7.38
2023-02-13T22:59:46.095Z,6.95
2023-02-13T23:02:49.516Z,7.22
2023-02-13T23:05:53.221Z,7.07
2023-02-13T23:08:56.526Z,7.05
2023-02-13T23:11:59.450Z,7.13
2023-02-13T23:15:02.282Z,7.57
2023-02-13T23:18:05.211Z,7.25
2023-02-13T23:21:09.044Z,7.85
2023-02-13T23:24:11.946Z,7.43
2023-02-13T23:27:15.038Z,7.13
2023-02-13T23:30:18.817Z,8.27
2023-02-13T23:33:21.801Z,8.27
2023-02-13T23:36:24.951Z,8.30
2023-02-13T23:39:27.946Z,7.88
2023-02-13T23:42:30.613Z,8.25
2023-02-13T23:45:34.298Z,8.05
2023-02-13T23:48:37.180Z,8.32
2023-02-13T23:51:40.119Z,8.35
2023-02-13T23:54:43.620Z,7.57
2023-02-13T23:57:46.596Z,7.05
